TimeEDT,TemperatureF,Dew PointF,Humidity,Sea Level PressureIn,VisibilityMPH,Wind Direction,Wind SpeedMPH,Gust SpeedMPH,PrecipitationIn,Events,Conditions,WindDirDegrees,DateUTC
12:53 AM,64.9,61.0,87,29.94,10.0,North,4.6,-,N/A,,Partly Cloudy,10,2013-07-25 04:53:00
1:53 AM,64.9,62.1,90,29.93,10.0,NNE,5.8,-,N/A,,Scattered Clouds,20,2013-07-25 05:53:00
2:53 AM,64.0,62.1,93,29.93,10.0,NNE,5.8,-,N/A,,Scattered Clouds,20,2013-07-25 06:53:00
3:53 AM,63.0,61.0,93,29.93,9.0,NNE,3.5,-,N/A,,Clear,30,2013-07-25 07:53:00
4:53 AM,63.0,61.0,93,29.94,9.0,NNE,3.5,-,N/A,,Clear,30,2013-07-25 08:53:00
5:53 AM,62.1,60.1,93,29.95,9.0,NNE,3.5,-,N/A,,Clear,20,2013-07-25 09:53:00
6:53 AM,62.1,60.1,93,29.97,7.0,Calm,Calm,-,N/A,,Clear,0,2013-07-25 10:53:00
7:53 AM,64.0,61.0,90,29.98,9.0,NNE,4.6,-,N/A,,Clear,20,2013-07-25 11:53:00
8:24 AM,64.4,60.8,88,30.02,10.0,NNE,3.5,-,N/A,,Partly Cloudy,30,2013-07-25 12:24:00
8:44 AM,64.4,60.8,88,30.03,10.0,Variable,3.5,-,N/A,,Mostly Cloudy,0,2013-07-25 12:44:00
8:53 AM,66.0,61.0,84,30.01,10.0,Variable,3.5,-,N/A,,Mostly Cloudy,0,2013-07-25 12:53:00
9:28 AM,66.2,62.6,88,30.04,10.0,Calm,Calm,-,N/A,,Mostly Cloudy,0,2013-07-25 13:28:00
9:45 AM,68.0,62.6,83,30.04,10.0,NE,5.8,-,N/A,,Scattered Clouds,50,2013-07-25 13:45:00
9:53 AM,68.0,62.1,81,30.01,10.0,Calm,Calm,-,N/A,,Partly Cloudy,0,2013-07-25 13:53:00
10:53 AM,73.0,61.0,66,30.00,10.0,Calm,Calm,-,N/A,,Partly Cloudy,0,2013-07-25 14:53:00
11:53 AM,75.0,57.9,55,30.02,10.0,NE,6.9,-,N/A,,Clear,40,2013-07-25 15:53:00
12:53 PM,75.9,57.9,54,30.02,10.0,NNE,9.2,-,N/A,,Mostly Cloudy,20,2013-07-25 16:53:00
1:53 PM,77.0,57.9,52,30.02,10.0,NNE,8.1,-,N/A,,Partly Cloudy,30,2013-07-25 17:53:00
2:53 PM,79.0,57.9,48,30.02,10.0,North,5.8,-,N/A,,Partly Cloudy,360,2013-07-25 18:53:00
3:53 PM,79.0,57.0,47,30.02,10.0,North,4.6,-,N/A,,Partly Cloudy,10,2013-07-25 19:53:00
4:53 PM,80.1,57.9,47,30.02,10.0,North,8.1,-,N/A,,Mostly Cloudy,350,2013-07-25 20:53:00
5:53 PM,77.0,59.0,54,30.03,10.0,NNE,6.9,-,N/A,,Mostly Cloudy,20,2013-07-25 21:53:00
6:53 PM,78.1,57.9,50,30.03,10.0,NNE,8.1,-,N/A,,Mostly Cloudy,30,2013-07-25 22:53:00
7:53 PM,75.0,57.9,55,30.04,10.0,North,8.1,-,N/A,,Mostly Cloudy,350,2013-07-25 23:53:00
8:53 PM,70.0,59.0,68,30.04,10.0,NNE,4.6,-,N/A,,Clear,20,2013-07-26 00:53:00
9:53 PM,68.0,59.0,73,30.06,10.0,Calm,Calm,-,N/A,,Clear,0,2013-07-26 01:53:00
10:53 PM,66.9,60.1,79,30.07,10.0,North,3.5,-,N/A,,Clear,10,2013-07-26 02:53:00
11:53 PM,64.9,59.0,81,30.07,10.0,Calm,Calm,-,N/A,,Clear,0,2013-07-26 03:53:00